Time;durP1;ratioP1;P1;durP2;ratioP2;P2;SDS_P1;SDS_P2;PMS_P1;PMS_P2;Temp;Humidity;BMP_temperature;BMP_pressure;BME280_temperature;BME280_humidity;BME280_pressure;Samples;Min_cycle;Max_cycle;Signal;HPM_P1;HPM_P2
2024/04/04 00:02:05;;;;;;;7.50;4.20;;;;;;;8.53;74.15;100207.16;111545;1212;99172;-73
2024/04/04 00:04:30;;;;;;;12.90;4.20;;;;;;;8.51;74.23;100210.63;111526;1211;100409;-72
2024/04/04 00:06:56;;;;;;;6.00;4.40;;;;;;;8.51;74.45;100207.10;111427;1212;139820;-72
2024/04/04 00:09:22;;;;;;;13.20;5.60;;;;;;;8.50;74.46;100201.96;111515;1205;107415;-73
2024/04/04 00:11:47;;;;;;;8.90;4.50;;;;;;;8.49;74.55;100196.69;111383;1211;139288;-72
2024/04/04 00:14:12;;;;;;;5.80;3.80;;;;;;;8.48;74.61;100193.34;111530;1210;100108;-72
2024/04/04 00:16:38;;;;;;;11.60;4.30;;;;;;;8.49;74.65;100187.40;111477;1205;139730;-71
2024/04/04 00:19:04;;;;;;;7.00;4.10;;;;;;;8.50;74.74;100186.11;111552;1206;100501;-72
2024/04/04 00:21:29;;;;;;;7.50;3.80;;;;;;;8.48;74.71;100187.96;111562;1206;99246;-72
2024/04/04 00:23:56;;;;;;;11.00;5.30;;;;;;;8.44;74.91;100187.06;111472;1211;138682;-72
2024/04/04 00:26:22;;;;;;;7.90;4.30;;;;;;;8.45;74.86;100185.96;111644;1211;100411;-73
2024/04/04 00:28:47;;;;;;;7.80;4.40;;;;;;;8.46;74.87;100182.54;111405;1205;139330;-72
2024/04/04 00:31:12;;;;;;;9.50;4.90;;;;;;;8.44;75.06;100183.49;111467;1211;100585;-72
2024/04/04 00:33:37;;;;;;;8.00;4.40;;;;;;;8.44;75.07;100177.62;111573;1205;100328;-72
2024/04/04 00:36:03;;;;;;;9.60;4.40;;;;;;;8.44;75.15;100174.42;111362;1206;138924;-73
2024/04/04 00:38:29;;;;;;;10.70;4.90;;;;;;;8.42;75.12;100172.54;111582;1211;100289;-71
2024/04/04 00:40:55;;;;;;;6.20;3.90;;;;;;;8.40;75.23;100169.77;111377;1208;139309;-71
2024/04/04 00:43:20;;;;;;;6.90;4.00;;;;;;;8.39;75.25;100162.88;111539;1211;100392;-70
2024/04/04 00:45:47;;;;;;;6.80;4.30;;;;;;;8.37;75.31;100156.92;111545;1211;100302;-70
2024/04/04 00:48:14;;;;;;;9.20;4.80;;;;;;;8.34;75.34;100154.71;111405;1206;139065;-70
2024/04/04 00:50:41;;;;;;;7.90;4.60;;;;;;;8.32;75.43;100157.64;111644;1206;100324;-70
2024/04/04 00:53:07;;;;;;;7.90;4.60;;;;;;;8.31;75.50;100158.38;111385;1211;140208;-70
2024/04/04 00:55:32;;;;;;;9.40;4.60;;;;;;;8.30;75.49;100155.25;111502;1206;100405;-70
2024/04/04 00:57:58;;;;;;;12.10;5.00;;;;;;;8.28;75.54;100158.88;111603;1211;100573;-71
2024/04/04 01:00:24;;;;;;;10.00;4.60;;;;;;;8.28;75.69;100157.27;111383;1218;140214;-71
2024/04/04 01:02:52;;;;;;;7.40;4.90;;;;;;;8.27;75.66;100159.64;111647;1206;100383;-71
2024/04/04 01:05:18;;;;;;;11.80;4.80;;;;;;;8.27;75.79;100157.33;111370;1209;139302;-70
2024/04/04 01:07:45;;;;;;;8.10;4.20;;;;;;;8.25;75.76;100153.30;111471;1206;100298;-71
2024/04/04 01:10:10;;;;;;;8.80;4.60;;;;;;;8.25;75.96;100155.08;111415;1212;100424;-70
2024/04/04 01:12:35;;;;;;;8.70;4.50;;;;;;;8.23;75.84;100155.87;111461;1212;138887;-71
2024/04/04 01:15:01;;;;;;;9.70;4.80;;;;;;;8.22;75.93;100154.69;111489;1206;100305;-70
2024/04/04 01:17:26;;;;;;;10.30;4.90;;;;;;;8.24;76.15;100150.14;111474;1212;139033;-70
2024/04/04 01:19:52;;;;;;;8.80;4.30;;;;;;;8.27;76.17;100148.61;111519;1211;100392;-71
2024/04/04 01:22:17;;;;;;;7.80;4.50;;;;;;;8.26;76.22;100146.17;111493;1206;100376;-71
2024/04/04 01:24:42;;;;;;;12.80;5.10;;;;;;;8.23;76.22;100145.19;111474;1221;138980;-71
2024/04/04 01:27:08;;;;;;;6.50;4.20;;;;;;;8.22;76.24;100143.09;111538;1211;100307;-71
2024/04/04 01:29:33;;;;;;;8.30;4.10;;;;;;;8.22;76.34;100142.02;111502;1206;139214;-70
2024/04/04 01:31:59;;;;;;;9.50;4.40;;;;;;;8.21;76.35;100141.88;111415;1209;100295;-71
2024/04/04 01:34:24;;;;;;;7.30;4.40;;;;;;;8.20;76.48;100135.70;111601;1206;101796;-71
2024/04/04 01:36:49;;;;;;;7.90;4.70;;;;;;;8.21;76.50;100130.53;111547;1211;139651;-71
2024/04/04 01:39:14;;;;;;;9.50;4.60;;;;;;;8.19;76.57;100131.67;111473;1206;100354;-70
2024/04/04 01:41:42;;;;;;;11.50;5.30;;;;;;;8.18;76.67;100134.20;111523;1211;138880;-70
2024/04/04 01:44:07;;;;;;;9.60;4.70;;;;;;;8.21;76.74;100138.89;111542;1211;113741;-70
2024/04/04 01:46:33;;;;;;;7.80;5.10;;;;;;;8.23;76.71;100143.09;111563;1206;100869;-70
2024/04/04 01:48:58;;;;;;;13.50;5.30;;;;;;;8.23;76.74;100138.08;111389;1211;138821;-70
2024/04/04 01:51:23;;;;;;;12.70;5.20;;;;;;;8.23;76.79;100136.86;111499;1206;100305;-70
2024/04/04 01:53:48;;;;;;;11.40;5.60;;;;;;;8.22;76.79;100131.55;111475;1211;140126;-70
2024/04/04 01:56:14;;;;;;;10.10;5.10;;;;;;;8.20;76.88;100131.61;111450;1207;101119;-70
2024/04/04 01:58:39;;;;;;;11.50;5.40;;;;;;;8.19;76.97;100132.39;111595;1211;100395;-70
2024/04/04 02:01:04;;;;;;;15.10;5.80;;;;;;;8.20;77.09;100130.73;111396;1207;138107;-70
2024/04/04 02:03:29;;;;;;;13.80;5.40;;;;;;;8.19;77.15;100125.97;111518;1206;101177;-70
2024/04/04 02:05:54;;;;;;;9.90;5.50;;;;;;;8.20;77.17;100126.98;111383;1212;139413;-70
2024/04/04 02:08:19;;;;;;;11.80;5.70;;;;;;;8.21;77.31;100125.38;111439;1206;100293;-70
2024/04/04 02:10:46;;;;;;;7.20;5.20;;;;;;;8.19;77.28;100122.41;111432;1215;139466;-70
2024/04/04 02:13:11;;;;;;;12.40;5.20;;;;;;;8.20;77.34;100120.77;111466;1211;101054;-71
2024/04/04 02:15:42;;;;;;;7.90;4.70;;;;;;;8.21;77.43;100114.65;111535;1207;100359;-71
2024/04/04 02:18:07;;;;;;;10.40;5.30;;;;;;;8.20;77.39;100114.89;111370;1206;139387;-70
2024/04/04 02:20:34;;;;;;;9.80;5.30;;;;;;;8.20;77.48;100121.84;111570;1212;100314;-71
2024/04/04 02:23:00;;;;;;;8.80;5.20;;;;;;;8.20;77.57;100116.14;111327;1212;141205;-70
2024/04/04 02:25:25;;;;;;;10.10;5.90;;;;;;;8.18;77.55;100112.84;111513;1205;100423;-70
2024/04/04 02:27:50;;;;;;;9.30;5.30;;;;;;;8.19;77.67;100113.70;111519;1210;100346;-71
2024/04/04 02:30:16;;;;;;;9.00;5.30;;;;;;;8.19;77.70;100108.88;111440;1211;138900;-71
2024/04/04 02:32:41;;;;;;;11.70;6.00;;;;;;;8.20;77.77;100105.27;111523;1207;100364;-70
2024/04/04 02:35:07;;;;;;;11.70;5.70;;;;;;;8.20;77.81;100106.17;111293;1206;139889;-70
2024/04/04 02:37:32;;;;;;;12.90;6.50;;;;;;;8.20;77.84;100104.77;111549;1211;113712;-71
2024/04/04 02:39:58;;;;;;;11.10;5.80;;;;;;;8.20;77.94;100104.05;111465;1206;100353;-71
2024/04/04 02:42:23;;;;;;;13.20;5.90;;;;;;;8.20;77.99;100107.94;111357;1222;139076;-71
2024/04/04 02:44:50;;;;;;;15.10;6.50;;;;;;;8.21;78.06;100105.79;111463;1210;101362;-71
2024/04/04 02:47:15;;;;;;;11.50;6.00;;;;;;;8.22;78.13;100102.17;111379;1207;139518;-70
2024/04/04 02:49:41;;;;;;;11.00;6.30;;;;;;;8.24;78.22;100103.34;111552;1206;100951;-71
2024/04/04 02:52:06;;;;;;;12.70;7.00;;;;;;;8.24;78.15;100100.31;111442;1212;100298;-70
2024/04/04 02:54:31;;;;;;;13.40;6.50;;;;;;;8.25;78.25;100099.35;111502;1212;139247;-70
2024/04/04 02:56:56;;;;;;;11.40;6.10;;;;;;;8.26;78.31;100100.25;111491;1206;100612;-71
2024/04/04 02:59:21;;;;;;;13.60;6.40;;;;;;;8.25;78.33;100102.76;111445;1212;139228;-70
2024/04/04 03:01:47;;;;;;;13.20;6.50;;;;;;;8.25;78.45;100104.18;111575;1212;100353;-70
2024/04/04 03:04:12;;;;;;;11.70;7.00;;;;;;;8.25;78.47;100105.25;111517;1206;100887;-70
2024/04/04 03:06:37;;;;;;;10.70;6.10;;;;;;;8.26;78.58;100104.32;111533;1206;139029;-71
2024/04/04 03:09:03;;;;;;;12.50;7.00;;;;;;;8.27;78.62;100099.11;111511;1212;102806;-71
2024/04/04 03:11:30;;;;;;;13.20;6.40;;;;;;;8.28;78.66;100092.50;111440;1206;139075;-70
2024/04/04 03:13:55;;;;;;;11.70;6.10;;;;;;;8.27;78.62;100092.52;111573;1211;100299;-70
2024/04/04 03:16:21;;;;;;;12.70;6.90;;;;;;;8.26;78.74;100090.80;111533;1206;100394;-70
2024/04/04 03:18:46;;;;;;;14.40;6.60;;;;;;;8.25;78.70;100093.31;111319;1212;139458;-70
2024/04/04 03:21:11;;;;;;;10.30;6.40;;;;;;;8.24;78.84;100091.21;111575;1211;100766;-70
2024/04/04 03:23:36;;;;;;;11.60;6.40;;;;;;;8.24;78.86;100091.08;111455;1212;139138;-70
2024/04/04 03:26:01;;;;;;;12.80;6.40;;;;;;;8.24;78.95;100092.13;111526;1206;100254;-70
2024/04/04 03:28:26;;;;;;;12.60;7.20;;;;;;;8.24;78.95;100092.49;111533;1211;100382;-70
2024/04/04 03:30:53;;;;;;;12.70;6.80;;;;;;;8.25;79.04;100094.58;111498;1212;139132;-71
2024/04/04 03:33:18;;;;;;;11.60;7.30;;;;;;;8.24;79.08;100096.21;111440;1211;107419;-71
2024/04/04 03:35:43;;;;;;;12.50;7.20;;;;;;;8.25;79.21;100094.41;111390;1206;139526;-70
2024/04/04 03:38:09;;;;;;;16.60;7.40;;;;;;;8.24;79.22;100088.36;111587;1212;99152;-71
2024/04/04 03:40:36;;;;;;;11.80;6.70;;;;;;;8.25;79.23;100089.77;111539;1211;100350;-71
2024/04/04 03:43:02;;;;;;;13.70;7.60;;;;;;;8.25;79.35;100089.77;111336;1206;139890;-71
2024/04/04 03:45:28;;;;;;;11.80;7.00;;;;;;;8.26;79.44;100086.36;111591;1210;100312;-70
2024/04/04 03:47:53;;;;;;;16.20;7.50;;;;;;;8.26;79.37;100081.37;111361;1212;139618;-70
2024/04/04 03:50:18;;;;;;;13.50;7.20;;;;;;;8.26;79.42;100081.17;111481;1211;100386;-71
2024/04/04 03:52:44;;;;;;;13.50;7.40;;;;;;;8.26;79.52;100080.30;111449;1211;140249;-70
2024/04/04 03:55:09;;;;;;;14.70;7.60;;;;;;;8.25;79.53;100086.89;111508;1212;100418;-70
2024/04/04 03:57:34;;;;;;;12.50;6.90;;;;;;;8.26;79.65;100088.31;111613;1206;100424;-70
2024/04/04 04:00:01;;;;;;;10.80;7.20;;;;;;;8.25;79.67;100087.83;111343;1213;139577;-71
2024/04/04 04:02:26;;;;;;;14.80;7.40;;;;;;;8.24;79.72;100088.03;111462;1212;101088;-70
2024/04/04 04:04:51;;;;;;;12.30;7.50;;;;;;;8.26;79.81;100090.08;111492;1212;139974;-70
2024/04/04 04:07:16;;;;;;;12.40;7.70;;;;;;;8.26;79.81;100088.83;111484;1212;100384;-70
2024/04/04 04:09:41;;;;;;;14.90;7.30;;;;;;;8.26;79.93;100091.16;111526;1212;100293;-71
2024/04/04 04:12:07;;;;;;;14.30;7.30;;;;;;;8.27;79.90;100094.45;111371;1206;139527;-71
2024/04/04 04:14:32;;;;;;;13.70;7.90;;;;;;;8.27;79.97;100095.21;111576;1206;100591;-71
2024/04/04 04:16:57;;;;;;;11.80;7.40;;;;;;;8.28;80.06;100095.16;111378;1206;139553;-70
2024/04/04 04:19:23;;;;;;;16.60;7.80;;;;;;;8.28;80.09;100094.09;111479;1206;100305;-71
2024/04/04 04:21:48;;;;;;;17.80;7.00;;;;;;;8.28;80.16;100096.56;111575;1212;100437;-71
2024/04/04 04:24:13;;;;;;;14.60;7.20;;;;;;;8.29;80.26;100089.23;111414;1212;140939;-72
2024/04/04 04:26:38;;;;;;;14.40;7.80;;;;;;;8.31;80.33;100091.64;111597;1210;100299;-71
2024/04/04 04:29:04;;;;;;;18.00;8.10;;;;;;;8.33;80.31;100087.64;111405;1211;139930;-70
2024/04/04 04:31:32;;;;;;;15.80;8.60;;;;;;;8.33;80.37;100087.84;111561;1206;100292;-73
2024/04/04 04:33:59;;;;;;;14.20;7.80;;;;;;;8.31;80.32;100091.10;111346;1206;100413;-71
2024/04/04 04:36:30;;;;;;;17.20;8.50;;;;;;;8.29;80.41;100083.35;111398;1212;139033;-73
2024/04/04 04:38:55;;;;;;;12.60;7.80;;;;;;;8.29;80.51;100084.27;111407;1206;101860;-71
2024/04/04 04:41:21;;;;;;;13.40;8.30;;;;;;;8.26;80.46;100085.29;111402;1206;139495;-71
2024/04/04 04:43:47;;;;;;;16.30;9.20;;;;;;;8.22;80.52;100082.96;111527;1212;100414;-71
2024/04/04 04:46:13;;;;;;;14.50;7.90;;;;;;;8.19;80.59;100080.96;111475;1206;100337;-71
2024/04/04 04:48:40;;;;;;;14.90;8.00;;;;;;;8.16;80.65;100085.52;111374;1206;139318;-71
2024/04/04 04:51:11;;;;;;;16.50;7.90;;;;;;;8.13;80.72;100084.39;111467;1212;100375;-74
2024/04/04 04:53:37;;;;;;;;;;;;;;;8.11;80.73;100088.02;111408;1206;139587;-72
2024/04/04 04:56:02;;;;;;;12.60;7.40;;;;;;;8.09;80.93;100087.56;111501;1222;100358;-72
2024/04/04 04:58:30;;;;;;;15.50;8.80;;;;;;;8.09;80.92;100087.22;111579;1209;100299;-72
2024/04/04 05:00:56;;;;;;;21.80;8.50;;;;;;;8.08;80.98;100083.16;111395;1206;139065;-72
2024/04/04 05:03:24;;;;;;;15.20;9.00;;;;;;;8.08;81.07;100081.39;111529;1212;100878;-72
2024/04/04 05:05:56;;;;;;;16.30;8.80;;;;;;;8.07;81.01;100082.14;111336;1206;139007;-71
2024/04/04 05:08:21;;;;;;;16.80;9.90;;;;;;;8.08;81.18;100083.90;111588;1206;108081;-73
2024/04/04 05:10:49;;;;;;;22.00;10.30;;;;;;;8.10;81.23;100080.59;111494;1212;100353;-72
2024/04/04 05:13:16;;;;;;;17.10;9.60;;;;;;;8.13;81.34;100080.98;111330;1212;139019;-72
2024/04/04 05:15:58;;;;;;;14.90;8.70;;;;;;;8.16;81.31;100075.36;111385;1206;100334;-73
2024/04/04 05:18:30;;;;;;;16.60;9.10;;;;;;;8.17;81.47;100074.96;111395;1206;139095;-73
2024/04/04 05:21:00;;;;;;;;;;;;;;;8.20;81.51;100075.92;111506;1211;109046;-73
2024/04/04 05:23:25;;;;;;;16.20;8.80;;;;;;;8.21;81.69;100071.24;111423;1206;126537;-75
2024/04/04 05:25:51;;;;;;;19.60;9.10;;;;;;;8.26;81.66;100068.73;111552;1212;100302;-74
2024/04/04 05:28:17;;;;;;;17.40;9.50;;;;;;;8.27;81.68;100067.58;111606;1206;100506;-74
2024/04/04 05:30:42;;;;;;;20.70;9.90;;;;;;;8.31;81.76;100076.18;111384;1206;139786;-73
2024/04/04 05:33:07;;;;;;;20.70;9.40;;;;;;;8.32;81.82;100073.79;111489;1211;100392;-72
2024/04/04 05:35:42;;;;;;;16.30;10.00;;;;;;;8.35;81.92;100080.29;111467;1206;139759;-73
2024/04/04 05:38:08;;;;;;;17.10;9.60;;;;;;;8.38;82.11;100083.16;111513;1206;100260;-73
2024/04/04 05:40:35;;;;;;;16.80;10.00;;;;;;;8.43;82.06;100082.97;111448;1212;101225;-73
2024/04/04 05:43:00;;;;;;;26.40;10.50;;;;;;;8.50;82.13;100081.22;111352;1210;139704;-73
2024/04/04 05:45:27;;;;;;;19.10;11.10;;;;;;;8.57;82.26;100083.58;111582;1206;100247;-74
2024/04/04 05:47:52;;;;;;;17.70;10.70;;;;;;;8.63;82.29;100088.30;111243;1212;140246;-73
2024/04/04 05:50:18;;;;;;;24.40;11.00;;;;;;;8.70;82.36;100087.11;111428;1206;100348;-73
2024/04/04 05:52:43;;;;;;;18.30;11.00;;;;;;;8.77;82.45;100092.51;111544;1220;100126;-73
2024/04/04 05:55:12;;;;;;;19.60;11.80;;;;;;;8.84;82.57;100093.06;111298;1206;139802;-73
2024/04/04 05:57:37;;;;;;;19.30;10.00;;;;;;;8.91;82.51;100096.52;111497;1206;100332;-73
2024/04/04 06:00:04;;;;;;;20.30;10.60;;;;;;;8.97;82.58;100093.01;111308;1206;139701;-73
2024/04/04 06:02:29;;;;;;;24.00;11.70;;;;;;;9.05;82.68;100094.80;111568;1206;100293;-73
2024/04/04 06:04:54;;;;;;;22.30;12.00;;;;;;;9.12;82.75;100094.29;111482;1206;100625;-73
2024/04/04 06:07:20;;;;;;;17.50;10.50;;;;;;;9.21;82.84;100096.36;111430;1212;139012;-73
2024/04/04 06:09:46;;;;;;;23.00;10.50;;;;;;;9.29;82.86;100093.65;111539;1212;101144;-73
2024/04/04 06:12:11;;;;;;;16.90;11.10;;;;;;;9.37;82.88;100092.95;111370;1206;139398;-73
2024/04/04 06:14:38;;;;;;;25.10;13.10;;;;;;;9.42;82.94;100093.95;111521;1212;100476;-70
2024/04/04 06:17:04;;;;;;;23.00;11.70;;;;;;;9.49;83.03;100090.77;111414;1206;139839;-71
2024/04/04 06:19:29;;;;;;;17.20;11.00;;;;;;;9.54;83.01;100091.80;111464;1212;100286;-71
2024/04/04 06:21:56;;;;;;;21.70;10.50;;;;;;;9.59;83.07;100089.38;111446;1212;103699;-71
2024/04/04 06:24:22;;;;;;;17.40;10.30;;;;;;;9.63;83.05;100087.41;111428;1206;141360;-71
2024/04/04 06:26:49;;;;;;;24.80;11.50;;;;;;;9.65;83.14;100087.64;111446;1206;107553;-71
2024/04/04 06:29:15;;;;;;;19.00;11.10;;;;;;;9.69;83.17;100088.52;111294;1212;140274;-70
2024/04/04 06:31:42;;;;;;;22.10;11.40;;;;;;;9.74;83.20;100092.73;111475;1209;100288;-70
2024/04/04 06:34:07;;;;;;;19.50;10.10;;;;;;;9.80;83.28;100096.21;111447;1206;100315;-70
2024/04/04 06:36:33;;;;;;;17.00;10.40;;;;;;;9.84;83.31;100098.16;111474;1206;140095;-70
2024/04/04 06:39:02;;;;;;;17.40;9.30;;;;;;;9.88;83.22;100099.72;111511;1208;100350;-70
2024/04/04 06:41:28;;;;;;;17.00;9.30;;;;;;;9.94;83.44;100103.01;111382;1210;139529;-71
2024/04/04 06:43:53;;;;;;;16.40;8.70;;;;;;;10.01;83.41;100106.56;111020;1206;100852;-72
2024/04/04 06:46:18;;;;;;;15.40;9.10;;;;;;;10.08;83.50;100108.21;111302;1206;100450;-70
2024/04/04 06:48:44;;;;;;;17.60;8.40;;;;;;;10.14;83.44;100104.71;110732;1212;139488;-69
2024/04/04 06:51:09;;;;;;;14.40;8.00;;;;;;;10.18;83.42;100106.63;110844;1206;100298;-70
2024/04/04 06:53:34;;;;;;;13.20;7.90;;;;;;;10.24;83.60;100100.64;110700;1218;139870;-70
2024/04/04 06:55:59;;;;;;;16.30;8.90;;;;;;;10.29;83.56;100096.98;110819;1210;100569;-69
2024/04/04 06:58:24;;;;;;;21.10;10.20;;;;;;;10.33;83.61;100094.64;110848;1212;100373;-71
2024/04/04 07:00:59;;;;;;;14.70;8.30;;;;;;;10.36;83.71;100097.52;110992;1206;140280;-71
2024/04/04 07:03:25;;;;;;;16.90;8.40;;;;;;;10.42;83.75;100103.98;111525;1206;101587;-72
2024/04/04 07:05:51;;;;;;;16.00;7.90;;;;;;;10.49;83.74;100103.99;111313;1206;139460;-71
2024/04/04 07:08:17;;;;;;;18.20;8.20;;;;;;;10.54;83.75;100108.55;111459;1206;100286;-71
2024/04/04 07:10:42;;;;;;;15.40;8.90;;;;;;;10.59;83.72;100112.02;111329;1206;113268;-72
2024/04/04 07:13:08;;;;;;;11.30;7.20;;;;;;;10.64;83.87;100113.19;111180;1210;139720;-72
2024/04/04 07:15:33;;;;;;;12.50;6.50;;;;;;;10.67;83.86;100118.77;111152;1206;100335;-70
2024/04/04 07:17:58;;;;;;;13.90;6.40;;;;;;;10.70;83.78;100129.33;110422;1212;141846;-69
2024/04/04 07:20:24;;;;;;;10.50;6.20;;;;;;;10.70;83.80;100127.85;110764;1212;100462;-70
2024/04/04 07:22:49;;;;;;;9.30;5.80;;;;;;;10.70;83.72;100131.46;110927;1212;107772;-69
2024/04/04 07:25:16;;;;;;;8.60;5.70;;;;;;;10.72;83.91;100133.68;110767;1210;141695;-69
2024/04/04 07:27:41;;;;;;;8.80;5.50;;;;;;;10.72;83.75;100134.73;111055;1206;101773;-71
2024/04/04 07:30:07;;;;;;;8.80;4.90;;;;;;;10.71;83.80;100136.23;110807;1206;139150;-71
2024/04/04 07:32:33;;;;;;;9.10;4.90;;;;;;;10.71;83.83;100133.92;110981;1205;100287;-71
2024/04/04 07:35:01;;;;;;;7.10;5.00;;;;;;;10.71;83.82;100134.95;110943;1212;100395;-71
2024/04/04 07:37:29;;;;;;;11.60;4.90;;;;;;;10.73;83.97;100132.72;110967;1211;140161;-71
2024/04/04 07:39:57;;;;;;;7.40;4.50;;;;;;;10.76;84.03;100134.54;110840;1212;102154;-70
2024/04/04 07:42:22;;;;;;;6.00;4.20;;;;;;;10.82;83.98;100134.09;110800;1212;139389;-71
2024/04/04 07:44:47;;;;;;;8.10;4.80;;;;;;;10.87;84.06;100137.00;110894;1212;100445;-71
2024/04/04 07:47:12;;;;;;;9.80;4.90;;;;;;;10.93;84.13;100137.02;110864;1206;139518;-70
2024/04/04 07:49:37;;;;;;;6.60;4.10;;;;;;;10.96;84.23;100135.27;110912;1206;100798;-72
2024/04/04 07:52:03;;;;;;;8.40;4.20;;;;;;;10.97;84.27;100126.09;110877;1222;100361;-72
2024/04/04 07:54:29;;;;;;;10.30;4.70;;;;;;;11.01;84.30;100126.05;110745;1212;139126;-72
2024/04/04 07:56:54;;;;;;;7.70;4.50;;;;;;;11.03;84.27;100124.52;111384;1206;100275;-72
2024/04/04 07:59:19;;;;;;;6.00;4.20;;;;;;;11.07;84.41;100124.85;111295;1206;140269;-71
2024/04/04 08:01:45;;;;;;;6.20;4.50;;;;;;;11.11;84.48;100125.39;111383;1210;100671;-72
2024/04/04 08:04:11;;;;;;;9.60;4.80;;;;;;;11.17;84.63;100124.86;111450;1205;101803;-73
2024/04/04 08:06:36;;;;;;;9.30;5.10;;;;;;;11.24;84.76;100121.40;111254;1206;140271;-72
2024/04/04 08:09:01;;;;;;;10.70;4.80;;;;;;;11.31;84.70;100123.34;111290;1212;100290;-72
2024/04/04 08:11:26;;;;;;;7.30;4.50;;;;;;;11.36;84.71;100127.36;111344;1206;139287;-72
2024/04/04 08:13:52;;;;;;;8.40;3.70;;;;;;;11.41;84.78;100128.16;111436;1206;100389;-72
2024/04/04 08:16:17;;;;;;;7.10;3.80;;;;;;;11.48;84.76;100134.41;111453;1210;100360;-72
2024/04/04 08:18:43;;;;;;;5.80;4.00;;;;;;;11.52;84.76;100133.50;111354;1205;139169;-72
2024/04/04 08:21:08;;;;;;;10.20;3.80;;;;;;;11.58;84.85;100136.91;111269;1205;104441;-71
2024/04/04 08:23:34;;;;;;;4.80;3.70;;;;;;;11.65;84.88;100135.63;110712;1211;139756;-69
2024/04/04 08:26:00;;;;;;;6.00;4.10;;;;;;;11.72;84.89;100134.11;111106;1205;101961;-69
2024/04/04 08:28:26;;;;;;;5.90;3.90;;;;;;;11.78;84.73;100130.99;110940;1206;102629;-70
2024/04/04 08:31:03;;;;;;;9.80;4.70;;;;;;;11.83;84.95;100135.20;110650;1209;139030;-72
2024/04/04 08:33:32;;;;;;;8.80;4.40;;;;;;;11.88;84.90;100134.15;111477;1206;100396;-72
2024/04/04 08:35:58;;;;;;;6.20;4.10;;;;;;;11.89;84.80;100131.09;111126;1212;140032;-72
2024/04/04 08:38:24;;;;;;;9.00;4.10;;;;;;;11.88;84.71;100131.67;111398;1211;100622;-72
2024/04/04 08:40:49;;;;;;;8.10;3.40;;;;;;;11.88;84.65;100126.30;111442;1206;100349;-73
2024/04/04 08:43:16;;;;;;;6.50;3.60;;;;;;;11.88;84.65;100127.53;111235;1212;139488;-72
2024/04/04 08:45:49;;;;;;;4.90;3.40;;;;;;;11.88;84.70;100126.45;111448;1211;100420;-72
2024/04/04 08:48:18;;;;;;;6.50;3.90;;;;;;;11.92;84.87;100130.36;111224;1205;139009;-72
2024/04/04 08:50:47;;;;;;;7.60;3.30;;;;;;;11.95;84.77;100136.77;111678;1209;100344;-72
2024/04/04 08:53:20;;;;;;;4.40;3.10;;;;;;;12.01;84.86;100131.46;111245;1211;139509;-71
2024/04/04 08:55:51;;;;;;;4.10;2.90;;;;;;;12.08;84.75;100133.92;111444;1206;100332;-72
2024/04/04 08:58:21;;;;;;;5.40;3.70;;;;;;;12.14;84.85;100135.55;111367;1206;108553;-72
2024/04/04 09:00:50;;;;;;;6.60;3.70;;;;;;;12.23;84.89;100145.38;111339;1211;139546;-71
2024/04/04 09:03:18;;;;;;;4.80;3.10;;;;;;;12.29;84.71;100140.17;111362;1210;100379;-72
2024/04/04 09:05:50;;;;;;;3.80;2.90;;;;;;;12.33;84.62;100143.34;111346;1211;139579;-72
2024/04/04 09:08:16;;;;;;;6.30;3.80;;;;;;;12.41;84.70;100140.22;111446;1205;100890;-70
2024/04/04 09:10:50;;;;;;;5.20;3.50;;;;;;;12.49;84.73;100136.89;111535;1209;105003;-71
2024/04/04 09:13:20;;;;;;;9.00;3.70;;;;;;;12.56;84.67;100132.70;111250;1207;139278;-71
2024/04/04 09:15:45;;;;;;;7.70;3.50;;;;;;;12.64;84.68;100137.22;111484;1211;100593;-71
2024/04/04 09:18:11;;;;;;;3.80;3.40;;;;;;;12.69;84.53;100132.27;111246;1211;140007;-72
2024/04/04 09:20:39;;;;;;;6.70;3.60;;;;;;;12.79;84.60;100131.52;111491;1211;100309;-71
2024/04/04 09:23:09;;;;;;;7.80;3.40;;;;;;;12.89;84.57;100124.45;111192;1212;100332;-71
2024/04/04 09:25:40;;;;;;;4.10;3.10;;;;;;;12.91;84.40;100125.70;111422;1206;100333;-72
2024/04/04 09:28:06;;;;;;;;;;;;;;;12.89;84.34;100119.39;111395;1212;115325;-71
2024/04/04 09:30:32;;;;;;;7.70;3.30;;;;;;;12.95;84.36;100115.80;111304;1211;125612;-72
2024/04/04 09:33:02;;;;;;;8.70;3.30;;;;;;;13.06;84.39;100135.33;111325;1206;100339;-71
2024/04/04 09:35:28;;;;;;;6.20;3.20;;;;;;;13.08;84.12;100127.00;111169;1212;139418;-69
2024/04/04 09:37:59;;;;;;;9.40;3.90;;;;;;;13.12;84.22;100137.15;111116;1211;100376;-73
2024/04/04 09:40:24;;;;;;;5.40;3.30;;;;;;;13.14;83.98;100133.20;111493;1211;115122;-71
2024/04/04 09:42:50;;;;;;;7.00;3.30;;;;;;;13.20;84.02;100133.41;111294;1211;139531;-70
2024/04/04 09:45:15;;;;;;;5.70;3.40;;;;;;;13.27;84.01;100134.40;111435;1206;100384;-70
2024/04/04 09:47:48;;;;;;;8.60;3.20;;;;;;;13.38;83.95;100133.58;111361;1206;139438;-70
2024/04/04 09:50:15;;;;;;;6.30;3.50;;;;;;;13.48;83.87;100138.86;111447;1206;114299;-70
2024/04/04 09:52:42;;;;;;;5.90;2.90;;;;;;;13.54;83.73;100138.31;111476;1206;100285;-72
2024/04/04 09:55:10;;;;;;;6.70;3.40;;;;;;;13.57;83.58;100136.84;111273;1206;140172;-71
2024/04/04 09:57:37;;;;;;;5.80;3.40;;;;;;;13.61;83.46;100140.52;111456;1211;100326;-71
2024/04/04 10:00:14;;;;;;;5.90;3.40;;;;;;;13.64;83.37;100143.18;111308;1206;139265;-71
2024/04/04 10:02:45;;;;;;;5.20;3.30;;;;;;;13.63;83.21;100144.14;111375;1211;113319;-71
2024/04/04 10:05:19;;;;;;;7.90;3.50;;;;;;;13.62;83.07;100143.66;111310;1205;139357;-70
2024/04/04 10:07:48;;;;;;;5.50;3.00;;;;;;;13.63;82.94;100139.67;111379;1206;105909;-71
2024/04/04 10:10:20;;;;;;;3.80;2.60;;;;;;;13.63;82.88;100139.33;111499;1210;100373;-71
2024/04/04 10:12:50;;;;;;;6.10;3.10;;;;;;;13.63;82.72;100140.55;111343;1206;139878;-71
2024/04/04 10:15:17;;;;;;;7.60;3.10;;;;;;;13.67;82.69;100139.77;111428;1206;113825;-71
2024/04/04 10:17:50;;;;;;;7.70;3.30;;;;;;;13.72;82.63;100140.54;111361;1212;139151;-71
2024/04/04 10:20:17;;;;;;;5.80;3.20;;;;;;;13.77;82.54;100135.14;111408;1206;107558;-72
2024/04/04 10:22:46;;;;;;;2.80;2.20;;;;;;;13.82;82.48;100132.67;111438;1206;100308;-71
2024/04/04 10:25:11;;;;;;;8.10;2.70;;;;;;;13.88;82.27;100126.58;111320;1206;139163;-72
2024/04/04 10:27:37;;;;;;;5.50;2.90;;;;;;;13.94;82.24;100131.89;111487;1211;100446;-72
2024/04/04 10:30:03;;;;;;;5.00;2.90;;;;;;;13.99;82.04;100129.61;111333;1205;139556;-71
2024/04/04 10:32:29;;;;;;;3.30;2.40;;;;;;;14.00;81.81;100131.55;111397;1211;100637;-71
2024/04/04 10:35:04;;;;;;;5.80;2.50;;;;;;;14.01;81.79;100122.67;111378;1206;100296;-71
2024/04/04 10:37:30;;;;;;;4.50;2.50;;;;;;;14.08;81.63;100120.26;111449;1211;139617;-70
2024/04/04 10:39:57;;;;;;;7.30;2.90;;;;;;;14.11;81.44;100116.25;111280;1206;100347;-72
2024/04/04 10:42:23;;;;;;;12.30;2.60;;;;;;;14.19;81.36;100116.57;111451;1208;140121;-71
2024/04/04 10:44:50;;;;;;;4.60;2.70;;;;;;;14.27;81.18;100116.42;111546;1205;100548;-71
2024/04/04 10:47:16;;;;;;;6.10;2.40;;;;;;;14.31;80.93;100110.44;111336;1214;139320;-70
2024/04/04 10:49:41;;;;;;;4.90;2.20;;;;;;;14.34;80.85;100106.45;111523;1211;100286;-71
2024/04/04 10:52:06;;;;;;;6.70;1.90;;;;;;;14.37;80.55;100103.36;111460;1205;100430;-70
2024/04/04 10:54:32;;;;;;;6.40;2.50;;;;;;;14.39;80.30;100103.42;111346;1206;138990;-70
2024/04/04 10:56:58;;;;;;;4.10;2.30;;;;;;;14.40;80.15;100107.67;111442;1211;100330;-70
2024/04/04 10:59:24;;;;;;;3.20;2.20;;;;;;;14.45;79.93;100106.56;111335;1206;139418;-70
2024/04/04 11:01:51;;;;;;;11.20;2.00;;;;;;;14.51;79.85;100111.26;111446;1206;100374;-69
2024/04/04 11:04:21;;;;;;;3.00;1.80;;;;;;;14.55;79.58;100116.15;110916;1211;101332;-69
2024/04/04 11:06:48;;;;;;;7.40;1.80;;;;;;;14.59;79.41;100113.52;110554;1206;140176;-70